Terminal Aerodrome Forecast
Issued by NWS

Home | Current Version | Previous Version | Text Only | Print | Product List | Glossary On
Versions: 1 2 3 4 5 6 7 8 9 10 11 12 13 14 15 16 17 18 19 20
000
FTUS42 KKEY 040900 AAA
TAFMTH
TAF AMD
KMTH 040900Z 0409/0506 11007KT P6SM SKC
     FM041400 11009G16KT P6SM FEW025
     FM050000 09007KT P6SM FEW025=

USA.gov is the U.S. government's official web portal to all federal, state and local government web resources and services.